Time;durP1;ratioP1;P1;durP2;ratioP2;P2;SDS_P1;SDS_P2;PMS_P1;PMS_P2;Temp;Humidity;BMP_temperature;BMP_pressure;BME280_temperature;BME280_humidity;BME280_pressure;Samples;Min_cycle;Max_cycle;Signal;HPM_P1;HPM_P2
2023/12/26 00:00:33;;;;;;;12.80;2.88;;;11.20;99.90;;;;;;5072741;28;20051;-45
2023/12/26 00:03:01;;;;;;;8.93;2.58;;;10.70;99.90;;;;;;5072643;28;20041;-45
2023/12/26 00:05:27;;;;;;;6.93;2.45;;;11.30;99.90;;;;;;5072352;28;20116;-45
2023/12/26 00:07:52;;;;;;;8.30;2.20;;;10.10;99.90;;;;;;5071363;28;20139;-45
2023/12/26 00:10:18;;;;;;;7.15;2.05;;;7.80;99.90;;;;;;5072299;28;20032;-46
2023/12/26 00:12:44;;;;;;;8.52;2.10;;;11.20;99.90;;;;;;5070129;28;20041;-45
2023/12/26 00:15:10;;;;;;;5.70;1.67;;;7.90;99.90;;;;;;5071157;28;20051;-45
2023/12/26 00:17:35;;;;;;;4.65;1.58;;;7.90;99.90;;;;;;5072264;28;20051;-45
2023/12/26 00:20:02;;;;;;;3.92;1.45;;;11.00;99.90;;;;;;5072287;28;20154;-46
2023/12/26 00:22:27;;;;;;;7.45;1.70;;;11.50;99.90;;;;;;5072518;28;20082;-47
2023/12/26 00:24:53;;;;;;;7.45;1.90;;;9.00;99.90;;;;;;5072204;28;20044;-46
2023/12/26 00:27:19;;;;;;;9.43;2.72;;;7.90;99.90;;;;;;5071940;28;20051;-46
2023/12/26 00:29:44;;;;;;;5.38;1.50;;;8.90;99.90;;;;;;5071751;28;20515;-46
2023/12/26 00:32:10;;;;;;;7.15;1.55;;;8.30;99.90;;;;;;5071820;28;20037;-46
2023/12/26 00:34:36;;;;;;;5.10;1.27;;;9.00;99.90;;;;;;5072388;28;20039;-47
2023/12/26 00:37:01;;;;;;;3.58;1.20;;;9.90;99.90;;;;;;5070807;28;20048;-46
2023/12/26 00:39:27;;;;;;;6.70;1.40;;;9.00;99.90;;;;;;5072106;28;20046;-46
2023/12/26 00:41:53;;;;;;;3.83;1.30;;;7.60;99.90;;;;;;5071730;28;20044;-46
2023/12/26 00:44:19;;;;;;;3.55;1.10;;;7.70;99.90;;;;;;5072151;28;20087;-47
2023/12/26 00:46:46;;;;;;;5.63;1.40;;;11.40;99.90;;;;;;5071604;28;20056;-46
2023/12/26 00:49:13;;;;;;;3.00;1.40;;;10.60;99.90;;;;;;5070607;28;20472;-48
2023/12/26 00:51:38;;;;;;;5.63;1.52;;;9.00;99.90;;;;;;5072139;28;20386;-46
2023/12/26 00:54:05;;;;;;;5.78;1.10;;;11.60;99.90;;;;;;5070798;28;20111;-45
2023/12/26 00:56:30;;;;;;;5.30;1.20;;;7.70;99.90;;;;;;5072250;28;20075;-48
2023/12/26 00:58:56;;;;;;;5.00;1.10;;;11.80;99.90;;;;;;5071784;28;20491;-48
2023/12/26 01:01:22;;;;;;;3.55;1.05;;;11.50;99.90;;;;;;5071555;28;20091;-46
2023/12/26 01:03:47;;;;;;;7.25;1.75;;;11.70;99.90;;;;;;5071602;28;20124;-48
2023/12/26 01:06:14;;;;;;;7.60;1.30;;;11.50;99.90;;;;;;5071658;28;20477;-46
2023/12/26 01:08:40;;;;;;;7.72;1.15;;;8.10;99.90;;;;;;5071629;28;20091;-47
2023/12/26 01:11:06;;;;;;;6.68;1.42;;;8.40;99.90;;;;;;5071431;28;20076;-48
2023/12/26 01:13:34;;;;;;;10.77;2.25;;;8.10;99.90;;;;;;5071449;28;20041;-46
2023/12/26 01:16:02;;;;;;;5.70;1.42;;;9.10;99.90;;;;;;5070422;28;20075;-49
2023/12/26 01:18:29;;;;;;;8.35;1.35;;;8.30;99.90;;;;;;5071508;28;20045;-50
2023/12/26 01:20:55;;;;;;;10.88;1.70;;;11.40;99.90;;;;;;5070410;28;20400;-48
2023/12/26 01:23:20;;;;;;;13.52;2.05;;;10.60;99.90;;;;;;5073058;28;20051;-49
2023/12/26 01:25:46;;;;;;;10.25;1.58;;;11.20;99.90;;;;;;5075439;28;20039;-48
2023/12/26 01:28:12;;;;;;;14.95;2.63;;;10.80;99.90;;;;;;5075169;28;20106;-50
2023/12/26 01:30:40;;;;;;;11.00;1.75;;;11.70;99.90;;;;;;5075589;28;20077;-50
2023/12/26 01:33:06;;;;;;;10.05;1.70;;;7.60;99.90;;;;;;5075357;28;20036;-46
2023/12/26 01:35:32;;;;;;;14.20;1.73;;;8.80;99.90;;;;;;5075194;28;20039;-46
2023/12/26 01:37:58;;;;;;;14.32;2.03;;;8.40;99.90;;;;;;5075099;28;20037;-47
2023/12/26 01:40:24;;;;;;;14.00;2.17;;;8.80;99.90;;;;;;5075047;28;20055;-50
2023/12/26 01:42:50;;;;;;;15.85;1.90;;;8.10;99.90;;;;;;5075218;28;20050;-46
2023/12/26 01:45:16;;;;;;;12.30;1.98;;;7.90;99.90;;;;;;5075092;28;20132;-45
2023/12/26 01:47:49;;;;;;;14.02;2.22;;;8.60;99.90;;;;;;5075396;28;20136;-46
2023/12/26 01:50:15;;;;;;;9.18;1.65;;;8.60;99.90;;;;;;5075128;28;20043;-45
2023/12/26 01:52:41;;;;;;;14.38;2.22;;;11.40;99.90;;;;;;5074914;28;20068;-45
2023/12/26 01:55:08;;;;;;;17.25;2.08;;;11.40;99.90;;;;;;5075149;28;20435;-47
2023/12/26 01:57:35;;;;;;;23.60;2.70;;;10.70;99.90;;;;;;5075073;28;20047;-46
2023/12/26 02:00:04;;;;;;;9.55;2.25;;;11.20;99.90;;;;;;5074940;28;20123;-48
2023/12/26 02:02:32;;;;;;;15.98;3.10;;;7.80;99.90;;;;;;5074805;28;20485;-47
2023/12/26 02:04:58;;;;;;;12.35;2.30;;;9.30;99.90;;;;;;5075052;28;20041;-49
2023/12/26 02:07:24;;;;;;;14.07;2.13;;;7.90;99.90;;;;;;5074654;28;20048;-47
2023/12/26 02:09:50;;;;;;;11.80;2.55;;;11.00;99.90;;;;;;5074822;28;20045;-51
2023/12/26 02:12:16;;;;;;;13.90;2.30;;;9.30;99.90;;;;;;5074648;28;20388;-51
2023/12/26 02:14:43;;;;;;;13.73;2.08;;;7.90;99.90;;;;;;5074895;28;20068;-47
2023/12/26 02:17:20;;;;;;;16.55;1.80;;;8.10;99.90;;;;;;5074397;28;20485;-46
2023/12/26 02:19:47;;;;;;;17.75;3.00;;;8.30;99.90;;;;;;5074393;28;20048;-45
2023/12/26 02:22:13;;;;;;;11.60;2.63;;;9.80;99.90;;;;;;5074211;28;20079;-46
2023/12/26 02:24:42;;;;;;;16.35;3.20;;;8.70;99.90;;;;;;5074229;28;20074;-46
2023/12/26 02:27:16;;;;;;;13.48;2.20;;;10.10;99.90;;;;;;5074265;28;20080;-49
2023/12/26 02:29:46;;;;;;;13.43;2.05;;;8.30;99.90;;;;;;5074109;28;20048;-46
2023/12/26 02:32:14;;;;;;;13.63;2.75;;;9.10;99.90;;;;;;5073830;28;20484;-54
2023/12/26 02:34:40;;;;;;;15.27;2.42;;;8.30;99.90;;;;;;5073269;28;20388;-50
2023/12/26 02:37:06;;;;;;;13.48;2.47;;;10.00;99.90;;;;;;5073888;28;20040;-47
2023/12/26 02:39:31;;;;;;;20.30;3.50;;;10.60;99.90;;;;;;5074006;28;20037;-50
2023/12/26 02:41:57;;;;;;;15.98;2.53;;;10.60;99.90;;;;;;5073948;28;20473;-49
2023/12/26 02:44:22;;;;;;;12.88;2.17;;;8.50;99.90;;;;;;5073715;28;20036;-50
2023/12/26 02:46:48;;;;;;;14.82;2.65;;;8.90;99.90;;;;;;5073420;28;20056;-50
2023/12/26 02:49:14;;;;;;;13.63;1.95;;;8.10;99.90;;;;;;5073670;28;20044;-50
2023/12/26 02:51:39;;;;;;;16.60;2.50;;;10.20;99.90;;;;;;5073909;28;20075;-49
2023/12/26 02:54:05;;;;;;;13.43;2.10;;;8.20;99.90;;;;;;5074019;28;20481;-49
2023/12/26 02:56:31;;;;;;;13.05;2.75;;;9.70;99.90;;;;;;5073377;28;20039;-48
2023/12/26 02:58:56;;;;;;;15.45;4.55;;;9.70;99.90;;;;;;5073666;28;20128;-47
2023/12/26 03:01:22;;;;;;;18.13;3.22;;;9.50;99.90;;;;;;5073784;28;20043;-47
2023/12/26 03:03:48;;;;;;;20.02;2.47;;;9.80;99.90;;;;;;5073889;28;20111;-47
2023/12/26 03:06:13;;;;;;;15.27;2.70;;;9.80;99.90;;;;;;5073697;28;20554;-47
2023/12/26 03:08:39;;;;;;;13.68;2.00;;;9.80;99.90;;;;;;5073174;28;20059;-49
2023/12/26 03:11:05;;;;;;;13.13;2.25;;;8.80;99.90;;;;;;5073744;28;20068;-48
2023/12/26 03:13:31;;;;;;;17.02;3.63;;;9.90;99.90;;;;;;5073649;28;20626;-47
2023/12/26 03:15:56;;;;;;;9.38;2.83;;;9.80;99.90;;;;;;5073886;28;20425;-48
2023/12/26 03:18:22;;;;;;;13.73;1.90;;;8.10;99.90;;;;;;5073525;28;20084;-47
2023/12/26 03:20:47;;;;;;;10.77;1.92;;;8.40;99.90;;;;;;5072149;28;20044;-49
2023/12/26 03:23:13;;;;;;;14.75;2.38;;;7.90;99.90;;;;;;5073377;28;20040;-46
2023/12/26 03:25:39;;;;;;;11.18;2.15;;;8.30;99.90;;;;;;5073504;28;20044;-45
2023/12/26 03:28:06;;;;;;;13.40;2.08;;;7.90;99.90;;;;;;5073380;28;20040;-46
2023/12/26 03:30:32;;;;;;;11.32;2.75;;;8.70;99.90;;;;;;5073260;28;20459;-45
2023/12/26 03:32:57;;;;;;;14.68;2.35;;;9.20;99.90;;;;;;5073092;28;20048;-47
2023/12/26 03:35:23;;;;;;;14.32;2.50;;;9.00;99.90;;;;;;5071991;28;20044;-47
2023/12/26 03:37:49;;;;;;;12.43;2.13;;;8.20;99.90;;;;;;5072621;28;20106;-45
2023/12/26 03:40:16;;;;;;;16.70;3.00;;;8.40;99.90;;;;;;5072747;28;20124;-46
2023/12/26 03:42:42;;;;;;;15.90;2.30;;;8.00;99.90;;;;;;5072637;28;20044;-46
2023/12/26 03:45:08;;;;;;;12.25;2.38;;;8.30;99.90;;;;;;5072603;28;20408;-45
2023/12/26 03:47:34;;;;;;;13.77;3.15;;;7.90;99.90;;;;;;5071561;28;20215;-46
2023/12/26 03:50:00;;;;;;;19.63;2.67;;;7.90;99.90;;;;;;5071612;28;20175;-46
2023/12/26 03:52:26;;;;;;;16.58;2.83;;;8.50;99.90;;;;;;5072690;28;20036;-47
2023/12/26 03:54:53;;;;;;;17.92;2.15;;;7.80;99.90;;;;;;5073045;28;20068;-46
2023/12/26 03:57:18;;;;;;;17.90;2.60;;;7.90;99.90;;;;;;5072635;28;20037;-46
2023/12/26 03:59:45;;;;;;;14.68;2.15;;;8.60;99.90;;;;;;5072344;28;20045;-45
2023/12/26 04:02:10;;;;;;;16.35;2.58;;;8.00;99.90;;;;;;5072201;28;20094;-47
2023/12/26 04:04:36;;;;;;;18.77;2.83;;;8.20;99.90;;;;;;5072303;28;20404;-45
2023/12/26 04:07:02;;;;;;;18.80;3.15;;;8.40;99.90;;;;;;5070861;28;20040;-47
2023/12/26 04:09:28;;;;;;;16.35;2.58;;;8.50;99.90;;;;;;5070969;28;20044;-51
2023/12/26 04:11:53;;;;;;;16.48;3.22;;;7.60;99.90;;;;;;5070675;28;20047;-50
2023/12/26 04:14:19;;;;;;;15.80;3.03;;;7.50;99.90;;;;;;5072003;28;20085;-48
2023/12/26 04:16:45;;;;;;;19.73;2.40;;;8.10;99.90;;;;;;5072361;28;20052;-46
2023/12/26 04:19:10;;;;;;;15.57;2.60;;;7.60;99.90;;;;;;5072114;28;20098;-48
2023/12/26 04:21:36;;;;;;;18.70;2.50;;;8.20;99.90;;;;;;5072314;28;20044;-51
2023/12/26 04:24:02;;;;;;;22.42;2.97;;;7.50;99.90;;;;;;5072409;28;20400;-48
2023/12/26 04:26:28;;;;;;;20.08;3.53;;;7.90;99.90;;;;;;5071985;28;20044;-49
2023/12/26 04:28:53;;;;;;;22.70;3.42;;;7.40;99.90;;;;;;5071747;28;20029;-48
2023/12/26 04:31:19;;;;;;;16.65;2.60;;;8.40;99.90;;;;;;5072079;28;20048;-49
2023/12/26 04:33:45;;;;;;;21.85;3.40;;;8.30;99.90;;;;;;5072322;28;20112;-49
2023/12/26 04:36:10;;;;;;;12.40;2.25;;;7.40;99.90;;;;;;5070334;28;20485;-51
2023/12/26 04:38:36;;;;;;;16.35;2.65;;;7.70;99.90;;;;;;5070814;28;20088;-48
2023/12/26 04:41:02;;;;;;;17.67;2.10;;;8.30;99.90;;;;;;5070937;28;20127;-45
2023/12/26 04:43:28;;;;;;;14.10;2.13;;;8.30;99.90;;;;;;5071661;28;20058;-45
2023/12/26 04:45:53;;;;;;;14.63;2.13;;;8.30;99.90;;;;;;5071299;28;20139;-46
2023/12/26 04:48:19;;;;;;;12.98;2.00;;;8.10;99.90;;;;;;5071476;28;20040;-45
2023/12/26 04:50:45;;;;;;;13.60;2.10;;;8.30;99.90;;;;;;5071952;28;20071;-45
2023/12/26 04:53:11;;;;;;;13.63;2.25;;;7.90;99.90;;;;;;5072092;28;20465;-45
2023/12/26 04:55:36;;;;;;;15.32;2.28;;;7.80;99.90;;;;;;5072011;28;20040;-46
2023/12/26 04:58:02;;;;;;;15.27;2.67;;;8.30;99.90;;;;;;5070331;28;20473;-47
2023/12/26 05:00:28;;;;;;;13.57;2.35;;;7.50;99.90;;;;;;5070631;28;20146;-45
2023/12/26 05:02:55;;;;;;;20.50;2.28;;;7.50;99.90;;;;;;5071799;28;20036;-45
2023/12/26 05:05:21;;;;;;;15.32;2.40;;;7.70;99.90;;;;;;5071759;28;20041;-45
2023/12/26 05:07:46;;;;;;;14.38;2.13;;;8.40;99.90;;;;;;5071813;28;20119;-47
2023/12/26 05:10:12;;;;;;;21.60;3.30;;;7.50;99.90;;;;;;5072069;28;20090;-46
2023/12/26 05:12:38;;;;;;;13.73;2.45;;;8.50;99.90;;;;;;5071726;28;20039;-46
2023/12/26 05:15:04;;;;;;;11.23;2.08;;;8.50;99.90;;;;;;5071647;28;20044;-46
2023/12/26 05:17:30;;;;;;;16.45;2.63;;;8.50;99.90;;;;;;5071561;28;20048;-47
2023/12/26 05:19:55;;;;;;;17.30;2.60;;;8.20;99.90;;;;;;5071401;28;20051;-45
2023/12/26 05:22:21;;;;;;;17.27;2.65;;;7.60;99.90;;;;;;5071837;28;20040;-45
2023/12/26 05:24:47;;;;;;;16.17;2.50;;;7.70;99.90;;;;;;5071944;28;20476;-46
2023/12/26 05:27:13;;;;;;;11.43;1.98;;;8.70;99.90;;;;;;5071549;28;20396;-45
2023/12/26 05:29:43;;;;;;;12.77;2.00;;;7.80;99.90;;;;;;5071879;28;20040;-48
2023/12/26 05:32:09;;;;;;;14.07;1.98;;;8.50;99.90;;;;;;5071605;28;20546;-45
2023/12/26 05:34:35;;;;;;;17.02;2.22;;;8.10;99.90;;;;;;5071743;28;20080;-47
2023/12/26 05:37:01;;;;;;;17.85;2.70;;;7.70;99.90;;;;;;5071495;28;20310;-48
2023/12/26 05:39:26;;;;;;;13.40;2.38;;;8.60;99.90;;;;;;5071828;28;20052;-45
2023/12/26 05:41:52;;;;;;;14.90;1.88;;;8.60;99.90;;;;;;5071757;28;20430;-49
2023/12/26 05:44:18;;;;;;;10.57;1.80;;;8.10;99.90;;;;;;5071172;28;20047;-48
2023/12/26 05:46:45;;;;;;;9.80;1.70;;;8.00;99.90;;;;;;5070976;28;20078;-47
2023/12/26 05:49:11;;;;;;;12.13;2.38;;;7.70;99.90;;;;;;5071252;28;20048;-47
2023/12/26 05:51:37;;;;;;;11.45;1.85;;;8.10;99.90;;;;;;5071692;28;20049;-50
2023/12/26 05:54:02;;;;;;;16.23;2.47;;;8.50;99.90;;;;;;5071197;28;20384;-47
2023/12/26 05:56:28;;;;;;;12.90;2.08;;;7.80;99.90;;;;;;5069938;28;20055;-45
2023/12/26 05:58:54;;;;;;;15.43;2.25;;;8.00;99.90;;;;;;5071212;28;20472;-45
2023/12/26 06:01:20;;;;;;;18.38;2.40;;;8.80;99.90;;;;;;5070332;28;20488;-46
2023/12/26 06:03:46;;;;;;;9.85;1.77;;;8.80;99.90;;;;;;5069929;28;20607;-47
2023/12/26 06:06:12;;;;;;;14.48;2.42;;;8.10;99.90;;;;;;5071373;28;20396;-47
2023/12/26 06:08:39;;;;;;;8.25;1.70;;;7.80;99.90;;;;;;5071371;28;20044;-49
2023/12/26 06:11:05;;;;;;;10.15;1.83;;;8.20;99.90;;;;;;5073794;28;20040;-47
2023/12/26 06:13:30;;;;;;;7.57;1.85;;;8.70;99.90;;;;;;5074337;28;20041;-45
2023/12/26 06:15:56;;;;;;;12.82;1.75;;;8.70;99.90;;;;;;5074080;28;20076;-45
2023/12/26 06:18:22;;;;;;;12.82;2.20;;;8.50;99.90;;;;;;5073716;28;20049;-46
2023/12/26 06:20:48;;;;;;;15.07;2.33;;;8.60;99.90;;;;;;5074003;28;20042;-47
2023/12/26 06:23:14;;;;;;;12.38;1.90;;;8.20;99.90;;;;;;5073506;28;20404;-48
2023/12/26 06:25:40;;;;;;;11.20;2.63;;;8.10;99.90;;;;;;5073624;28;20032;-46
2023/12/26 06:28:06;;;;;;;11.98;2.22;;;8.50;99.90;;;;;;5073601;28;20044;-45
2023/12/26 06:30:31;;;;;;;14.40;2.28;;;7.60;99.90;;;;;;5072512;28;20040;-45
2023/12/26 06:32:57;;;;;;;12.27;2.40;;;8.50;99.90;;;;;;5072280;28;20066;-49
2023/12/26 06:35:23;;;;;;;17.23;2.88;;;7.90;99.90;;;;;;5072389;28;20047;-50
2023/12/26 06:37:49;;;;;;;14.50;2.72;;;7.60;99.90;;;;;;5073253;28;20048;-45
2023/12/26 06:40:15;;;;;;;11.05;2.22;;;7.70;99.90;;;;;;5072001;28;20102;-46
2023/12/26 06:42:41;;;;;;;17.42;2.75;;;8.50;99.90;;;;;;5073309;28;20516;-48
2023/12/26 06:45:07;;;;;;;17.55;2.38;;;7.50;99.90;;;;;;5073289;28;20028;-45
2023/12/26 06:47:33;;;;;;;14.55;2.55;;;8.30;99.90;;;;;;5072956;28;20520;-47
2023/12/26 06:49:59;;;;;;;12.40;2.53;;;7.40;99.90;;;;;;5073156;28;20032;-47
2023/12/26 06:52:25;;;;;;;12.32;2.55;;;8.30;99.90;;;;;;5072662;28;20107;-47
2023/12/26 06:54:51;;;;;;;18.23;2.80;;;8.40;99.90;;;;;;5072910;28;20044;-46
2023/12/26 06:57:17;;;;;;;17.50;2.85;;;7.50;99.90;;;;;;5072973;28;20163;-46
2023/12/26 06:59:48;;;;;;;14.40;2.00;;;7.40;99.90;;;;;;5071556;28;20093;-46
2023/12/26 07:02:14;;;;;;;22.85;2.97;;;7.60;99.90;;;;;;5072436;28;20081;-49
2023/12/26 07:04:44;;;;;;;15.02;2.53;;;8.10;99.90;;;;;;5072621;28;20063;-45
2023/12/26 07:07:10;;;;;;;11.93;2.08;;;7.60;99.90;;;;;;5072447;28;20049;-45
2023/12/26 07:09:36;;;;;;;19.50;3.08;;;8.30;99.90;;;;;;5072654;28;20037;-45
2023/12/26 07:12:02;;;;;;;17.40;2.78;;;7.90;99.90;;;;;;5072185;28;20059;-44
2023/12/26 07:14:28;;;;;;;17.30;2.33;;;8.50;99.90;;;;;;5071445;28;20037;-45
2023/12/26 07:16:54;;;;;;;21.67;4.82;;;7.50;99.90;;;;;;5071430;28;20066;-45
2023/12/26 07:19:20;;;;;;;15.68;2.20;;;7.40;99.90;;;;;;5072779;28;20129;-46
2023/12/26 07:21:45;;;;;;;12.95;2.53;;;8.60;99.90;;;;;;5071223;28;20067;-45
2023/12/26 07:24:12;;;;;;;19.17;2.20;;;7.90;99.90;;;;;;5072222;28;20040;-46
2023/12/26 07:26:38;;;;;;;19.83;3.20;;;7.60;99.90;;;;;;5072597;28;20491;-45
2023/12/26 07:29:03;;;;;;;13.35;2.65;;;8.60;99.90;;;;;;5072644;28;20037;-46
2023/12/26 07:31:29;;;;;;;12.85;2.85;;;7.70;99.90;;;;;;5072192;28;20362;-46
2023/12/26 07:33:55;;;;;;;15.27;2.90;;;8.30;99.90;;;;;;5071718;28;20068;-46
2023/12/26 07:36:21;;;;;;;12.00;1.83;;;7.60;99.90;;;;;;5071689;28;20407;-46
2023/12/26 07:38:47;;;;;;;14.45;2.40;;;8.30;99.90;;;;;;5071122;28;20052;-45
2023/12/26 07:41:12;;;;;;;11.85;1.73;;;8.40;99.90;;;;;;5060590;28;20504;-46
2023/12/26 07:43:38;;;;;;;13.23;2.45;;;8.00;99.90;;;;;;5060559;28;20124;-46
2023/12/26 07:46:04;;;;;;;19.85;2.45;;;7.40;99.90;;;;;;5061423;28;20048;-45
2023/12/26 07:48:30;;;;;;;12.63;1.52;;;7.50;99.90;;;;;;5060931;28;20529;-46
2023/12/26 07:50:56;;;;;;;17.38;2.25;;;7.90;99.90;;;;;;5061184;28;20111;-46
2023/12/26 07:53:22;;;;;;;16.08;3.00;;;7.80;99.90;;;;;;5062294;28;20029;-46
2023/12/26 07:55:49;;;;;;;13.55;2.40;;;8.30;99.90;;;;;;5063366;28;20040;-45
2023/12/26 07:58:15;;;;;;;12.02;2.05;;;7.50;99.90;;;;;;5069300;28;20040;-47
2023/12/26 08:00:40;;;;;;;12.73;2.08;;;7.70;99.90;;;;;;5066300;28;20078;-49
2023/12/26 08:03:06;;;;;;;11.80;2.80;;;8.20;99.90;;;;;;5048652;28;20033;-47
2023/12/26 08:05:32;;;;;;;17.35;2.55;;;8.30;99.90;;;;;;5057746;28;20033;-46
2023/12/26 08:07:57;;;;;;;18.58;2.47;;;8.10;99.90;;;;;;5051733;28;20055;-50
2023/12/26 08:10:25;;;;;;;19.00;3.92;;;8.00;99.90;;;;;;5051403;28;20032;-47
2023/12/26 08:12:51;;;;;;;10.57;2.20;;;7.80;99.90;;;;;;5051131;28;20055;-47
2023/12/26 08:15:17;;;;;;;19.52;2.70;;;8.30;99.90;;;;;;5051701;28;20116;-45
2023/12/26 08:17:43;;;;;;;17.92;2.38;;;7.50;99.90;;;;;;5051334;28;20148;-46
2023/12/26 08:20:09;;;;;;;13.32;1.85;;;8.30;99.90;;;;;;5060489;28;20047;-46
2023/12/26 08:22:35;;;;;;;18.10;3.83;;;7.40;99.90;;;;;;5071144;28;20130;-45
2023/12/26 08:25:01;;;;;;;16.40;2.53;;;8.40;99.90;;;;;;5071438;28;20116;-46
2023/12/26 08:27:27;;;;;;;15.27;2.20;;;8.00;99.90;;;;;;5071147;28;20036;-47
2023/12/26 08:29:53;;;;;;;16.85;2.15;;;8.40;99.90;;;;;;5071039;28;20039;-50
2023/12/26 08:32:19;;;;;;;14.00;2.00;;;8.30;99.90;;;;;;5070666;28;20048;-46
2023/12/26 08:34:45;;;;;;;16.08;2.38;;;8.40;99.90;;;;;;5070920;28;20040;-48
2023/12/26 08:37:14;;;;;;;14.55;3.10;;;7.30;99.90;;;;;;5070876;28;20492;-46
2023/12/26 08:39:40;;;;;;;17.08;2.70;;;8.50;99.90;;;;;;5069452;28;20043;-45
2023/12/26 08:42:07;;;;;;;17.05;3.10;;;7.40;99.90;;;;;;5069125;28;20041;-46
2023/12/26 08:44:32;;;;;;;15.13;2.10;;;7.60;99.90;;;;;;5059219;28;20072;-46
2023/12/26 08:47:05;;;;;;;13.90;2.30;;;7.50;99.90;;;;;;5059112;28;20145;-46
2023/12/26 08:49:30;;;;;;;;;;;8.30;99.90;;;;;;5069086;28;20037;-45
2023/12/26 08:51:56;;;;;;;18.23;2.25;;;7.90;99.90;;;;;;5070562;28;19920;-46
2023/12/26 08:54:22;;;;;;;16.42;2.78;;;7.50;99.90;;;;;;5070613;28;20055;-49
2023/12/26 08:56:48;;;;;;;16.85;2.92;;;7.50;99.90;;;;;;5069366;28;20101;-47
2023/12/26 08:59:14;;;;;;;13.50;2.72;;;8.50;99.90;;;;;;5070323;28;20044;-50
2023/12/26 09:01:39;;;;;;;15.77;2.33;;;7.60;99.90;;;;;;5069538;28;20055;-47
2023/12/26 09:04:07;;;;;;;20.48;3.08;;;8.00;99.90;;;;;;5070767;28;20068;-45
2023/12/26 09:06:33;;;;;;;16.30;2.60;;;8.20;99.90;;;;;;5070554;28;20045;-48
2023/12/26 09:08:59;;;;;;;13.00;2.70;;;7.70;99.90;;;;;;5071190;28;20189;-46
2023/12/26 09:11:24;;;;;;;15.40;3.05;;;8.30;99.90;;;;;;5071229;28;20065;-48
2023/12/26 09:13:50;;;;;;;13.95;3.15;;;7.80;99.90;;;;;;5071080;28;20043;-49
2023/12/26 09:16:16;;;;;;;12.00;3.65;;;8.10;99.90;;;;;;5071312;28;20477;-47
2023/12/26 09:18:42;;;;;;;16.42;3.67;;;8.20;99.90;;;;;;5070908;28;20076;-50
2023/12/26 09:21:07;;;;;;;17.08;3.15;;;8.60;99.90;;;;;;5071022;28;20040;-47
2023/12/26 09:23:33;;;;;;;16.40;2.80;;;8.40;99.90;;;;;;5070680;28;20036;-48
2023/12/26 09:26:03;;;;;;;15.15;2.30;;;8.50;99.90;;;;;;5068523;28;20087;-45
2023/12/26 09:28:31;;;;;;;17.00;3.42;;;7.90;99.90;;;;;;5069674;28;20139;-44
2023/12/26 09:30:57;;;;;;;12.65;2.03;;;8.80;99.90;;;;;;5069559;28;20037;-44
2023/12/26 09:33:24;;;;;;;19.17;3.08;;;8.70;99.90;;;;;;5069623;28;20491;-46
2023/12/26 09:35:51;;;;;;;13.90;2.90;;;8.10;99.90;;;;;;5069942;28;20048;-46
2023/12/26 09:38:17;;;;;;;14.15;2.88;;;8.00;99.90;;;;;;5066822;28;20069;-46
2023/12/26 09:40:43;;;;;;;16.90;3.88;;;8.80;99.90;;;;;;5058635;28;20179;-46
2023/12/26 09:43:09;;;;;;;17.23;3.58;;;8.00;99.90;;;;;;5059924;28;20041;-47
2023/12/26 09:45:35;;;;;;;13.45;2.55;;;8.70;99.90;;;;;;5062339;28;20044;-50
2023/12/26 09:48:00;;;;;;;15.50;2.80;;;8.10;99.90;;;;;;5062646;28;20053;-46
2023/12/26 09:50:26;;;;;;;15.43;2.33;;;8.50;99.90;;;;;;5064245;28;20032;-48
2023/12/26 09:52:58;;;;;;;17.38;2.90;;;8.70;99.90;;;;;;5064922;28;20136;-49
2023/12/26 09:55:27;;;;;;;18.05;2.38;;;8.10;99.90;;;;;;5062985;28;20060;-47
2023/12/26 09:57:54;;;;;;;12.68;2.22;;;8.10;99.90;;;;;;5065645;28;20040;-45
2023/12/26 10:00:21;;;;;;;15.93;3.03;;;8.10;99.90;;;;;;5065054;28;20052;-49
2023/12/26 10:02:49;;;;;;;16.88;2.67;;;8.80;99.90;;;;;;5062854;28;20076;-45
2023/12/26 10:05:15;;;;;;;14.50;2.53;;;8.10;99.90;;;;;;5062261;28;20044;-50
2023/12/26 10:07:41;;;;;;;20.13;5.47;;;8.10;99.90;;;;;;5063849;28;20052;-46
2023/12/26 10:10:07;;;;;;;18.40;3.50;;;8.80;99.90;;;;;;5061609;28;20059;-46
2023/12/26 10:12:34;;;;;;;17.15;2.70;;;8.70;99.90;;;;;;5053480;28;20041;-50
2023/12/26 10:15:04;;;;;;;15.70;2.50;;;8.70;99.90;;;;;;5053451;28;20037;-49
2023/12/26 10:17:31;;;;;;;19.70;3.50;;;8.40;99.90;;;;;;5052263;28;20045;-48
2023/12/26 10:19:57;;;;;;;16.45;2.53;;;8.40;99.90;;;;;;5052060;28;20124;-49
2023/12/26 10:22:30;;;;;;;13.05;2.90;;;8.70;99.90;;;;;;5053269;28;20120;-46
2023/12/26 10:24:56;;;;;;;14.13;3.50;;;8.20;99.90;;;;;;5053257;28;20170;-48
2023/12/26 10:27:23;;;;;;;12.63;2.63;;;8.60;99.90;;;;;;5053403;28;20132;-45
2023/12/26 10:29:54;;;;;;;17.88;2.90;;;8.60;99.90;;;;;;5053155;28;20040;-45
2023/12/26 10:32:26;;;;;;;15.38;2.72;;;8.30;99.90;;;;;;5053582;28;20037;-49
2023/12/26 10:34:55;;;;;;;12.63;2.42;;;8.80;99.90;;;;;;5053055;28;20068;-46
2023/12/26 10:37:22;;;;;;;18.45;4.07;;;8.80;99.90;;;;;;5055818;28;20043;-58
2023/12/26 10:39:48;;;;;;;19.08;3.88;;;8.90;99.90;;;;;;5061712;28;20032;-45
2023/12/26 10:42:18;;;;;;;19.77;3.55;;;8.80;99.90;;;;;;5071670;28;20051;-45
2023/12/26 10:44:58;;;;;;;17.88;2.92;;;8.40;99.90;;;;;;5072911;28;20119;-45
2023/12/26 10:47:26;;;;;;;15.57;3.33;;;8.90;99.90;;;;;;5073043;28;20093;-46
2023/12/26 10:49:56;;;;;;;16.45;3.33;;;9.00;99.90;;;;;;5072719;28;20551;-46
2023/12/26 10:52:23;;;;;;;16.33;2.72;;;8.80;99.90;;;;;;5073086;28;20082;-47
2023/12/26 10:54:51;;;;;;;17.35;2.95;;;8.60;99.90;;;;;;5073042;28;20478;-45
2023/12/26 10:57:17;;;;;;;15.82;2.50;;;8.40;99.90;;;;;;5072324;28;20048;-45
2023/12/26 13:52:00;;;;;;;8.68;1.00;;;6.70;99.90;;;;;;5054316;28;20135;-46
2023/12/26 13:55:04;;;;;;;8.18;1.00;;;6.60;99.90;;;;;;5054144;28;20485;-48
2023/12/26 13:58:07;;;;;;;6.63;1.17;;;6.80;99.90;;;;;;5054240;28;20045;-48
2023/12/26 14:01:10;;;;;;;8.95;1.10;;;7.90;99.90;;;;;;5054090;28;20040;-46
2023/12/26 14:04:13;;;;;;;6.45;0.90;;;7.20;99.90;;;;;;5053635;28;20219;-50
2023/12/26 14:06:57;;;;;;;;;;;7.80;99.90;;;;;;5054204;28;20133;-49
2023/12/26 14:10:01;;;;;;;5.90;0.73;;;7.70;99.90;;;;;;5054217;28;19921;-49
2023/12/26 14:13:04;;;;;;;9.13;1.08;;;6.90;99.90;;;;;;5054000;28;20113;-50
2023/12/26 14:16:07;;;;;;;7.18;1.05;;;7.50;99.90;;;;;;5053103;28;20040;-45
2023/12/26 14:19:10;;;;;;;6.07;1.08;;;6.70;99.90;;;;;;5052700;28;20040;-45
2023/12/26 14:22:13;;;;;;;7.50;1.30;;;7.20;99.90;;;;;;5051446;28;20056;-45
2023/12/26 14:25:16;;;;;;;7.32;1.33;;;7.60;99.90;;;;;;5053438;28;20580;-45
2023/12/26 14:28:19;;;;;;;4.88;0.75;;;6.60;99.90;;;;;;5053366;28;20045;-45
2023/12/26 14:31:24;;;;;;;9.98;2.70;;;7.40;99.90;;;;;;5052464;28;20448;-45
2023/12/26 14:34:27;;;;;;;5.68;0.80;;;6.80;99.90;;;;;;5053167;28;20516;-46
2023/12/26 14:37:30;;;;;;;5.15;1.20;;;6.80;99.90;;;;;;5053407;28;20402;-46
2023/12/26 14:40:33;;;;;;;4.38;1.67;;;6.40;99.90;;;;;;5053384;28;20045;-46
2023/12/26 14:43:36;;;;;;;7.35;1.02;;;7.20;99.90;;;;;;5053193;28;20119;-48
2023/12/26 14:46:02;;;;;;;9.43;0.82;;;7.20;99.90;;;;;;5052645;28;20107;-47
2023/12/26 14:48:27;;;;;;;7.05;1.00;;;6.90;99.90;;;;;;5053136;28;20485;-46
2023/12/26 14:50:53;;;;;;;7.20;0.82;;;7.20;99.90;;;;;;5052989;28;20047;-47
2023/12/26 14:53:19;;;;;;;8.60;1.13;;;6.60;99.90;;;;;;5053180;28;20041;-46
2023/12/26 14:55:44;;;;;;;6.78;1.45;;;6.70;99.90;;;;;;5053240;28;20040;-49
2023/12/26 14:58:10;;;;;;;4.88;0.80;;;6.80;99.90;;;;;;5053368;28;20045;-46
2023/12/26 15:00:36;;;;;;;6.05;1.23;;;6.50;99.90;;;;;;5053300;28;20404;-50
2023/12/26 15:03:02;;;;;;;10.18;1.20;;;6.50;99.90;;;;;;5053032;28;20041;-48
2023/12/26 15:05:33;;;;;;;6.28;1.45;;;6.90;99.90;;;;;;5053149;28;20041;-49
2023/12/26 15:08:00;;;;;;;8.27;0.90;;;6.80;99.90;;;;;;5052785;28;20041;-46
2023/12/26 15:10:25;;;;;;;10.07;1.08;;;6.80;99.90;;;;;;5052969;28;20045;-48
2023/12/26 15:12:51;;;;;;;11.00;1.30;;;6.80;99.90;;;;;;5051413;28;20382;-46
2023/12/26 15:15:17;;;;;;;9.57;1.00;;;6.40;99.90;;;;;;5052896;28;20136;-51
2023/12/26 15:17:43;;;;;;;6.95;1.58;;;6.10;99.90;;;;;;5053022;28;20044;-48
2023/12/26 15:20:10;;;;;;;7.38;1.23;;;6.30;99.90;;;;;;5052972;28;20362;-46
2023/12/26 15:22:35;;;;;;;7.65;1.25;;;6.90;99.90;;;;;;5053018;28;20048;-47
2023/12/26 15:25:01;;;;;;;9.00;1.08;;;6.90;99.90;;;;;;5052807;28;20102;-45
2023/12/26 15:27:27;;;;;;;7.18;1.55;;;6.00;99.90;;;;;;5051397;28;20493;-51
2023/12/26 15:29:52;;;;;;;11.00;1.20;;;6.30;99.90;;;;;;5052067;28;20129;-47
2023/12/26 15:32:18;;;;;;;9.57;1.00;;;6.10;99.90;;;;;;5052713;28;20037;-49
2023/12/26 15:34:44;;;;;;;8.23;1.00;;;6.30;99.90;;;;;;5052524;28;20191;-46
2023/12/26 15:37:10;;;;;;;9.20;1.00;;;6.70;99.90;;;;;;5052648;28;20044;-47
2023/12/26 15:39:36;;;;;;;8.50;1.08;;;6.40;99.90;;;;;;5052612;28;20045;-47
2023/12/26 15:42:04;;;;;;;8.10;1.25;;;5.90;99.90;;;;;;5052639;28;20099;-47
2023/12/26 15:44:30;;;;;;;8.77;1.35;;;5.60;99.90;;;;;;5052225;28;20053;-48